createdAt,value
2022-10-04T00:01:12.825Z,5.13
2022-10-04T00:03:52.493Z,4.97
2022-10-04T00:06:26.103Z,4.78
2022-10-04T00:09:01.197Z,4.90
2022-10-04T00:11:30.785Z,4.70
2022-10-04T00:13:59.588Z,4.82
2022-10-04T00:16:31.745Z,5.28
2022-10-04T00:19:19.468Z,4.72
2022-10-04T00:21:52.394Z,4.80
2022-10-04T00:24:28.102Z,4.90
2022-10-04T00:27:21.863Z,4.43
2022-10-04T00:30:06.425Z,4.50
2022-10-04T00:32:41.856Z,5.20
2022-10-04T00:35:26.712Z,5.40
2022-10-04T00:37:58.624Z,5.65
2022-10-04T00:40:46.449Z,5.25
2022-10-04T00:43:22.043Z,5.55
2022-10-04T00:45:59.418Z,5.40
2022-10-04T00:48:49.170Z,5.43
2022-10-04T00:51:42.225Z,5.35
2022-10-04T00:54:18.282Z,5.88
2022-10-04T00:56:49.989Z,6.47
2022-10-04T00:59:39.791Z,5.90
2022-10-04T01:02:18.772Z,5.70
2022-10-04T01:04:56.336Z,5.20
2022-10-04T01:07:34.096Z,6.05
2022-10-04T01:10:08.871Z,5.28
2022-10-04T01:12:49.584Z,5.90
2022-10-04T01:15:42.829Z,6.50
2022-10-04T01:18:15.595Z,7.10
2022-10-04T01:20:52.503Z,6.60
2022-10-04T01:23:34.924Z,7.40
2022-10-04T01:26:04.154Z,7.00
2022-10-04T01:28:38.495Z,7.18
2022-10-04T01:31:05.110Z,8.88
2022-10-04T01:33:31.651Z,9.77
2022-10-04T01:35:58.359Z,9.80
2022-10-04T01:38:24.805Z,10.75
2022-10-04T01:41:00.511Z,9.93
2022-10-04T01:43:36.476Z,10.30
2022-10-04T01:46:10.161Z,9.73
2022-10-04T01:48:56.861Z,9.80
2022-10-04T01:51:27.436Z,10.13
2022-10-04T01:53:56.376Z,9.93
2022-10-04T01:56:30.060Z,10.60
2022-10-04T01:59:04.236Z,9.82
2022-10-04T02:01:45.361Z,8.90
2022-10-04T02:04:22.050Z,8.95
2022-10-04T02:06:54.153Z,8.07
2022-10-04T02:09:27.065Z,7.95
2022-10-04T02:11:54.981Z,8.88
2022-10-04T02:14:25.359Z,8.43
2022-10-04T02:16:56.683Z,7.10
2022-10-04T02:19:27.558Z,7.88
2022-10-04T02:21:56.042Z,7.18
2022-10-04T02:24:22.700Z,7.05
2022-10-04T02:26:53.243Z,7.32
2022-10-04T02:29:21.013Z,8.60
2022-10-04T02:32:10.192Z,7.85
2022-10-04T02:34:37.489Z,7.78
2022-10-04T02:37:05.629Z,7.40
2022-10-04T02:39:38.895Z,7.60
2022-10-04T02:42:28.982Z,6.97
2022-10-04T02:45:05.477Z,6.88
2022-10-04T02:47:44.631Z,6.95
2022-10-04T02:50:30.765Z,6.57
2022-10-04T02:53:12.764Z,7.38
2022-10-04T02:55:39.261Z,7.40
2022-10-04T02:58:10.782Z,7.47
2022-10-04T03:00:47.298Z,7.70
2022-10-04T03:03:16.669Z,8.27
2022-10-04T03:05:46.723Z,8.57
2022-10-04T03:08:14.078Z,8.80
2022-10-04T03:10:42.777Z,8.93
2022-10-04T03:13:09.990Z,8.80
2022-10-04T03:15:37.689Z,8.93
2022-10-04T03:18:04.194Z,6.93
2022-10-04T03:20:30.831Z,4.93
2022-10-04T03:23:00.455Z,4.88
2022-10-04T03:25:35.796Z,4.55
2022-10-04T03:28:03.269Z,5.15
2022-10-04T03:30:31.830Z,5.45
2022-10-04T03:32:59.833Z,6.13
2022-10-04T03:35:32.209Z,7.32
2022-10-04T03:37:59.208Z,7.47
2022-10-04T03:40:30.433Z,7.30
2022-10-04T03:42:59.125Z,7.13
2022-10-04T03:45:28.360Z,6.57
2022-10-04T03:48:01.029Z,6.60
2022-10-04T03:50:36.270Z,9.25
2022-10-04T03:53:35.726Z,6.15
2022-10-04T03:56:09.581Z,6.65
2022-10-04T03:58:36.476Z,6.00
2022-10-04T04:01:12.241Z,6.15
2022-10-04T04:04:00.633Z,6.32
2022-10-04T04:06:37.462Z,5.72
2022-10-04T04:09:21.756Z,5.07
2022-10-04T04:11:56.207Z,4.88
2022-10-04T04:14:26.294Z,4.82
2022-10-04T04:17:14.949Z,4.85
2022-10-04T04:19:47.568Z,4.82
2022-10-04T04:22:17.344Z,4.50
2022-10-04T04:24:45.968Z,4.53
2022-10-04T04:27:16.167Z,4.60
2022-10-04T04:29:48.571Z,4.18
2022-10-04T04:32:20.730Z,4.40
2022-10-04T04:35:31.343Z,4.63
2022-10-04T04:38:14.353Z,4.00
2022-10-04T04:40:41.227Z,3.92
2022-10-04T04:43:18.038Z,3.50
2022-10-04T04:45:45.815Z,3.50
2022-10-04T04:48:16.444Z,3.72
2022-10-04T04:50:52.803Z,3.22
2022-10-04T04:56:04.607Z,2.87
2022-10-04T04:58:35.650Z,2.90
2022-10-04T05:01:23.271Z,3.00
2022-10-04T05:04:14.074Z,3.13
2022-10-04T05:06:46.502Z,3.17
2022-10-04T05:09:50.227Z,2.75
2022-10-04T05:12:21.349Z,2.75
2022-10-04T05:14:52.200Z,3.20
2022-10-04T05:17:33.957Z,3.10
2022-10-04T05:20:02.236Z,3.30
2022-10-04T05:22:30.544Z,3.67
2022-10-04T05:25:10.455Z,3.83
2022-10-04T05:27:39.290Z,4.55
2022-10-04T05:30:08.804Z,4.70
2022-10-04T05:32:54.266Z,4.75
2022-10-04T05:35:22.757Z,4.65
2022-10-04T05:37:56.115Z,5.10
2022-10-04T05:40:31.672Z,4.82
2022-10-04T05:42:59.461Z,5.03
2022-10-04T05:45:31.072Z,4.72
2022-10-04T05:48:01.049Z,4.90
2022-10-04T05:50:35.135Z,5.00
2022-10-04T05:53:19.842Z,4.80
2022-10-04T05:56:20.376Z,4.07
2022-10-04T05:58:48.143Z,4.05
2022-10-04T06:01:33.228Z,4.40
2022-10-04T06:04:33.807Z,4.20
2022-10-04T06:07:10.691Z,3.63
2022-10-04T06:09:49.251Z,4.03
2022-10-04T06:12:30.045Z,4.30
2022-10-04T06:15:08.643Z,3.75
2022-10-04T06:17:53.348Z,3.60
2022-10-04T06:20:38.087Z,3.85
2022-10-04T06:23:12.357Z,3.65
2022-10-04T06:25:43.919Z,3.47
2022-10-04T06:28:22.907Z,3.65
2022-10-04T06:31:08.319Z,3.53
2022-10-04T06:33:46.849Z,3.83
2022-10-04T06:36:28.636Z,4.03
2022-10-04T06:39:43.369Z,4.05
2022-10-04T06:42:35.524Z,3.60
2022-10-04T06:45:21.284Z,3.72
2022-10-04T06:48:06.475Z,3.85
2022-10-04T06:50:46.616Z,4.10
2022-10-04T06:53:59.775Z,4.22
2022-10-04T06:56:34.386Z,3.63
2022-10-04T06:59:31.664Z,3.80
2022-10-04T07:02:21.598Z,4.25
2022-10-04T07:05:09.708Z,3.80
2022-10-04T07:07:41.915Z,3.40
2022-10-04T07:10:08.302Z,3.45
2022-10-04T07:12:40.396Z,3.65
2022-10-04T07:15:22.795Z,3.90
2022-10-04T07:17:53.093Z,3.95
2022-10-04T07:20:26.165Z,3.60
2022-10-04T07:23:05.204Z,3.70
2022-10-04T07:25:43.108Z,3.28
2022-10-04T07:28:28.177Z,3.00
2022-10-04T07:31:04.099Z,2.90
2022-10-04T07:33:35.017Z,3.22
2022-10-04T07:36:13.604Z,3.20
2022-10-04T07:39:06.678Z,3.90
2022-10-04T07:41:39.699Z,2.65
2022-10-04T07:44:35.128Z,2.40
2022-10-04T07:47:26.794Z,2.58
2022-10-04T07:49:58.228Z,1.83
2022-10-04T07:52:36.746Z,2.15
2022-10-04T07:55:03.148Z,1.40
2022-10-04T07:57:46.145Z,1.70
2022-10-04T08:00:18.923Z,1.77
2022-10-04T08:03:20.032Z,2.03
2022-10-04T08:06:07.219Z,1.45
2022-10-04T08:08:54.396Z,1.83
2022-10-04T08:11:48.111Z,1.77
2022-10-04T08:14:24.681Z,1.85
2022-10-04T08:17:24.615Z,1.70
2022-10-04T08:20:02.292Z,1.60
2022-10-04T08:22:54.075Z,1.75
2022-10-04T08:25:26.513Z,1.45
2022-10-04T08:28:27.061Z,1.88
2022-10-04T08:31:27.811Z,1.40
2022-10-04T08:34:31.947Z,1.50
2022-10-04T08:36:59.555Z,1.67
2022-10-04T08:39:47.413Z,1.50
2022-10-04T08:42:33.499Z,1.90
2022-10-04T08:45:24.841Z,1.90
2022-10-04T08:48:03.132Z,1.80
2022-10-04T08:50:38.381Z,1.67
2022-10-04T08:53:11.014Z,1.70
2022-10-04T08:55:50.585Z,1.65
2022-10-04T08:58:39.098Z,1.83
2022-10-04T09:01:44.120Z,1.90
2022-10-04T09:04:22.962Z,1.83
2022-10-04T09:07:07.371Z,1.90
2022-10-04T09:10:25.292Z,2.10
2022-10-04T09:13:30.922Z,1.40
2022-10-04T09:16:42.607Z,1.40
2022-10-04T09:19:24.411Z,1.42
2022-10-04T09:21:56.811Z,1.40
2022-10-04T09:24:52.571Z,1.77
2022-10-04T09:27:55.397Z,1.58
2022-10-04T09:30:25.245Z,1.45
2022-10-04T09:33:02.301Z,1.80
2022-10-04T09:35:43.501Z,1.40
2022-10-04T09:38:38.895Z,1.13
2022-10-04T09:41:22.420Z,1.60
2022-10-04T09:44:13.063Z,1.77
2022-10-04T09:47:10.597Z,1.63
2022-10-04T09:52:47.910Z,2.00
2022-10-04T09:55:23.513Z,1.52
2022-10-04T09:58:16.325Z,1.90
2022-10-04T10:00:50.763Z,1.70
2022-10-04T10:03:26.381Z,1.60
2022-10-04T10:06:41.578Z,1.83
2022-10-04T10:09:18.556Z,1.83
2022-10-04T10:12:37.227Z,1.77
2022-10-04T10:15:29.700Z,1.80
2022-10-04T10:18:41.680Z,1.58
2022-10-04T10:21:55.521Z,1.63
2022-10-04T10:24:59.821Z,1.58
2022-10-04T10:27:35.648Z,1.70
2022-10-04T10:30:05.227Z,1.70
2022-10-04T10:32:52.949Z,1.50
2022-10-04T10:35:34.649Z,1.27
2022-10-04T10:38:19.417Z,1.33
2022-10-04T10:41:00.237Z,0.93
2022-10-04T10:43:51.043Z,0.90
2022-10-04T10:46:39.437Z,1.10
2022-10-04T10:49:16.185Z,0.80
2022-10-04T10:52:12.763Z,1.50
2022-10-04T10:55:12.495Z,1.10
2022-10-04T10:57:57.612Z,1.30
2022-10-04T11:00:43.926Z,0.90
2022-10-04T11:04:00.719Z,0.90
2022-10-04T11:06:33.083Z,1.00
2022-10-04T11:09:19.859Z,0.93
2022-10-04T11:12:05.726Z,0.80
2022-10-04T11:14:53.172Z,1.13
2022-10-04T11:17:28.548Z,0.90
2022-10-04T11:20:07.012Z,0.93
2022-10-04T11:23:11.275Z,0.85
2022-10-04T11:25:43.728Z,0.80
2022-10-04T11:28:24.249Z,0.70
2022-10-04T11:31:29.528Z,0.80
2022-10-04T11:34:16.641Z,0.82
2022-10-04T11:37:03.199Z,1.00
2022-10-04T11:40:06.541Z,0.90
2022-10-04T11:42:50.078Z,1.00
2022-10-04T11:45:55.897Z,0.68
2022-10-04T11:48:40.585Z,0.70
2022-10-04T11:51:26.144Z,0.82
2022-10-04T11:54:18.552Z,0.77
2022-10-04T11:57:08.870Z,0.65
2022-10-04T11:59:58.041Z,0.63
2022-10-04T12:02:55.061Z,0.70
2022-10-04T12:06:03.627Z,0.90
2022-10-04T12:09:07.794Z,0.50
2022-10-04T12:12:24.993Z,0.80
2022-10-04T12:14:57.279Z,0.98
2022-10-04T12:18:19.767Z,0.90
2022-10-04T12:21:14.716Z,0.73
2022-10-04T12:23:59.982Z,0.80
2022-10-04T12:26:32.337Z,0.80
2022-10-04T12:28:58.690Z,0.95
2022-10-04T12:31:32.277Z,1.00
2022-10-04T12:34:03.777Z,0.80
2022-10-04T12:36:57.937Z,0.57
2022-10-04T12:39:31.015Z,0.60
2022-10-04T12:42:10.120Z,0.95
2022-10-04T12:45:08.805Z,0.90
2022-10-04T12:47:52.554Z,0.80
2022-10-04T12:50:33.259Z,0.60
2022-10-04T12:53:11.832Z,0.65
2022-10-04T12:56:07.376Z,0.70
2022-10-04T12:59:18.250Z,0.90
2022-10-04T13:02:05.642Z,0.77
2022-10-04T13:04:59.261Z,0.82
2022-10-04T13:07:56.159Z,0.90
2022-10-04T13:10:37.085Z,0.68
2022-10-04T13:13:42.377Z,0.75
2022-10-04T13:19:27.557Z,0.85
2022-10-04T13:22:11.337Z,0.82
2022-10-04T13:24:56.448Z,1.10
2022-10-04T13:27:30.890Z,0.77
2022-10-04T13:30:20.336Z,0.70
2022-10-04T13:32:49.697Z,0.68
2022-10-04T13:35:27.785Z,0.80
2022-10-04T13:38:32.493Z,0.70
2022-10-04T13:41:24.938Z,0.70
2022-10-04T13:44:30.122Z,0.70
2022-10-04T13:46:56.541Z,0.60
2022-10-04T13:49:56.290Z,0.80
2022-10-04T13:53:00.295Z,0.95
2022-10-04T13:56:00.836Z,0.70
2022-10-04T13:58:39.289Z,0.80
2022-10-04T14:01:23.422Z,0.70
2022-10-04T14:03:55.768Z,0.82
2022-10-04T14:06:52.338Z,0.60
2022-10-04T14:09:46.135Z,0.80
2022-10-04T14:12:19.951Z,0.70
2022-10-04T14:15:20.055Z,0.50
2022-10-04T14:18:01.104Z,0.70
2022-10-04T14:20:56.516Z,0.60
2022-10-04T14:23:38.572Z,0.80
2022-10-04T14:26:37.188Z,0.70
2022-10-04T14:29:03.670Z,0.60
2022-10-04T14:31:42.593Z,0.75
2022-10-04T14:34:40.850Z,0.60
2022-10-04T14:37:29.504Z,0.70
2022-10-04T14:40:11.089Z,0.75
2022-10-04T14:42:49.928Z,1.20
2022-10-04T14:45:51.956Z,1.00
2022-10-04T14:48:24.421Z,0.80
2022-10-04T14:50:57.738Z,0.80
2022-10-04T14:53:37.357Z,0.80
2022-10-04T14:56:06.771Z,0.80
2022-10-04T14:59:07.289Z,0.80
2022-10-04T15:01:45.551Z,1.17
2022-10-04T15:04:52.744Z,0.90
2022-10-04T15:07:30.059Z,0.90
2022-10-04T15:10:19.119Z,1.20
2022-10-04T15:13:10.693Z,1.35
2022-10-04T15:16:14.145Z,1.00
2022-10-04T15:19:07.568Z,1.10
2022-10-04T15:21:45.429Z,1.30
2022-10-04T15:24:44.447Z,1.20
2022-10-04T15:27:32.901Z,1.77
2022-10-04T15:30:11.769Z,1.60
2022-10-04T15:32:50.365Z,1.70
2022-10-04T15:35:30.429Z,1.38
2022-10-04T15:38:22.747Z,1.25
2022-10-04T15:41:06.958Z,1.45
2022-10-04T15:43:43.885Z,1.40
2022-10-04T15:46:58.189Z,1.52
2022-10-04T15:49:40.988Z,1.65
2022-10-04T15:52:45.616Z,1.73
2022-10-04T15:55:36.817Z,1.80
2022-10-04T15:58:52.028Z,1.77
2022-10-04T16:01:33.666Z,1.90
2022-10-04T16:04:13.912Z,1.90
2022-10-04T16:07:11.521Z,1.67
2022-10-04T16:09:51.546Z,1.83
2022-10-04T16:12:33.036Z,2.00
2022-10-04T16:15:14.758Z,1.90
2022-10-04T16:18:25.119Z,1.77
2022-10-04T16:21:34.060Z,1.73
2022-10-04T16:24:21.338Z,7.32
2022-10-04T16:26:56.321Z,5.72
2022-10-04T16:30:14.815Z,2.67
2022-10-04T16:33:06.132Z,2.63
2022-10-04T16:36:13.400Z,1.85
2022-10-04T16:39:06.501Z,1.63
2022-10-04T16:41:41.347Z,2.00
2022-10-04T16:44:28.772Z,1.95
2022-10-04T16:47:00.080Z,1.95
2022-10-04T16:49:57.099Z,1.90
2022-10-04T16:52:48.101Z,2.13
2022-10-04T16:55:42.325Z,2.10
2022-10-04T16:58:30.642Z,2.22
2022-10-04T17:01:22.119Z,2.55
2022-10-04T17:04:20.131Z,2.78
2022-10-04T17:07:03.271Z,2.88
2022-10-04T17:09:52.963Z,3.00
2022-10-04T17:12:45.621Z,3.28
2022-10-04T17:15:15.014Z,2.88
2022-10-04T17:18:12.236Z,2.70
2022-10-04T17:21:04.078Z,3.00
2022-10-04T17:24:14.487Z,3.92
2022-10-04T17:27:16.117Z,3.58
2022-10-04T17:30:06.943Z,2.88
2022-10-04T17:33:11.108Z,7.70
2022-10-04T17:36:20.541Z,8.70
2022-10-04T17:38:46.879Z,8.48
2022-10-04T17:41:47.386Z,9.80
2022-10-04T17:44:51.555Z,9.20
2022-10-04T17:47:58.449Z,8.93
2022-10-04T17:50:56.128Z,9.15
2022-10-04T17:54:00.802Z,6.80
2022-10-04T17:56:36.557Z,5.72
2022-10-04T17:59:12.383Z,4.60
2022-10-04T18:01:45.806Z,5.00
2022-10-04T18:04:26.296Z,4.05
2022-10-04T18:06:55.838Z,3.80
2022-10-04T18:09:27.937Z,3.38
2022-10-04T18:12:42.317Z,3.50
2022-10-04T18:15:42.073Z,3.85
2022-10-04T18:18:14.673Z,3.85
2022-10-04T18:20:56.254Z,3.65
2022-10-04T18:23:27.162Z,3.33
2022-10-04T18:26:32.788Z,3.05
2022-10-04T18:29:01.356Z,2.30
2022-10-04T18:32:01.393Z,2.60
2022-10-04T18:34:29.816Z,3.38
2022-10-04T18:37:39.171Z,4.22
2022-10-04T18:40:18.010Z,3.50
2022-10-04T18:42:58.412Z,3.58
2022-10-04T18:45:26.354Z,2.80
2022-10-04T18:47:54.427Z,2.72
2022-10-04T18:50:20.867Z,3.15
2022-10-04T18:52:55.522Z,2.63
2022-10-04T18:55:37.849Z,2.42
2022-10-04T18:58:55.255Z,2.42
2022-10-04T19:01:54.922Z,3.25
2022-10-04T19:04:55.530Z,4.03
2022-10-04T19:07:49.876Z,7.30
2022-10-04T19:10:27.207Z,6.90
2022-10-04T19:13:27.690Z,5.97
2022-10-04T19:16:06.578Z,5.35
2022-10-04T19:18:51.507Z,5.85
2022-10-04T19:21:37.463Z,7.38
2022-10-04T19:24:25.803Z,6.47
2022-10-04T19:26:57.491Z,3.30
2022-10-04T19:29:42.241Z,3.20
2022-10-04T19:32:20.976Z,2.92
2022-10-04T19:35:01.498Z,2.97
2022-10-04T19:37:35.167Z,2.90
2022-10-04T19:40:25.314Z,4.38
2022-10-04T19:43:04.968Z,4.95
2022-10-04T19:46:04.789Z,4.70
2022-10-04T19:48:43.669Z,4.25
2022-10-04T19:51:34.211Z,4.70
2022-10-04T19:54:29.324Z,3.78
2022-10-04T19:56:58.815Z,4.18
2022-10-04T19:59:29.120Z,4.32
2022-10-04T20:01:55.728Z,4.53
2022-10-04T20:04:42.123Z,3.92
2022-10-04T20:07:15.852Z,4.10
2022-10-04T20:09:47.933Z,3.83
2022-10-04T20:12:35.497Z,3.92
2022-10-04T20:15:17.245Z,3.80
2022-10-04T20:17:48.965Z,3.35
2022-10-04T20:20:37.256Z,3.13
2022-10-04T20:23:04.120Z,3.45
2022-10-04T20:25:45.832Z,3.22
2022-10-04T20:28:27.658Z,3.15
2022-10-04T20:31:02.218Z,3.38
2022-10-04T20:33:34.845Z,3.78
2022-10-04T20:36:06.226Z,3.78
2022-10-04T20:38:53.071Z,3.35
2022-10-04T20:41:28.660Z,2.92
2022-10-04T20:44:01.466Z,2.93
2022-10-04T20:46:34.855Z,3.28
2022-10-04T20:49:02.749Z,3.42
2022-10-04T20:51:32.811Z,3.80
2022-10-04T20:54:00.165Z,3.80
2022-10-04T20:56:31.646Z,3.70
2022-10-04T20:59:03.080Z,4.13
2022-10-04T21:01:36.514Z,3.97
2022-10-04T21:04:18.179Z,3.92
2022-10-04T21:06:55.376Z,4.10
2022-10-04T21:09:22.225Z,4.18
2022-10-04T21:11:55.321Z,4.38
2022-10-04T21:14:33.152Z,4.07
2022-10-04T21:17:03.808Z,3.95
2022-10-04T21:19:33.454Z,3.60
2022-10-04T21:22:00.996Z,3.38
2022-10-04T21:24:37.902Z,2.75
2022-10-04T21:27:06.293Z,3.63
2022-10-04T21:29:32.748Z,3.40
2022-10-04T21:31:59.733Z,3.17
2022-10-04T21:34:48.664Z,2.90
2022-10-04T21:37:12.978Z,3.47
2022-10-04T21:39:39.580Z,3.20
2022-10-04T21:42:06.037Z,3.20
2022-10-04T21:44:32.692Z,3.35
2022-10-04T21:46:59.132Z,3.53
2022-10-04T21:49:26.042Z,3.22
2022-10-04T21:51:52.658Z,3.08
2022-10-04T21:54:19.079Z,3.17
2022-10-04T21:56:45.622Z,2.90
2022-10-04T21:59:12.229Z,3.28
2022-10-04T22:01:38.697Z,3.13
2022-10-04T22:04:05.138Z,2.90
2022-10-04T22:06:31.559Z,2.75
2022-10-04T22:08:57.953Z,2.80
2022-10-04T22:11:24.423Z,2.92
2022-10-04T22:13:51.158Z,2.70
2022-10-04T22:16:17.671Z,2.58
2022-10-04T22:18:44.116Z,2.30
2022-10-04T22:21:10.562Z,2.85
2022-10-04T22:23:39.940Z,2.50
2022-10-04T22:26:18.272Z,2.50
2022-10-04T22:29:02.501Z,2.63
2022-10-04T22:31:29.489Z,2.60
2022-10-04T22:33:56.306Z,2.20
2022-10-04T22:36:40.015Z,2.40
2022-10-04T22:39:18.055Z,1.98
2022-10-04T22:41:48.744Z,2.15
2022-10-04T22:44:15.175Z,2.28
2022-10-04T22:46:45.219Z,2.53
2022-10-04T22:49:15.263Z,2.10
2022-10-04T22:51:44.049Z,2.38
2022-10-04T22:54:17.025Z,2.50
2022-10-04T22:56:44.289Z,2.15
2022-10-04T22:59:12.733Z,2.60
2022-10-04T23:01:40.545Z,2.03
2022-10-04T23:04:21.036Z,2.35
2022-10-04T23:06:48.306Z,2.15
2022-10-04T23:09:15.143Z,2.30
2022-10-04T23:11:41.704Z,1.85
2022-10-04T23:14:08.152Z,1.92
2022-10-04T23:16:36.426Z,2.13
2022-10-04T23:19:23.309Z,1.98
2022-10-04T23:21:50.003Z,1.90
2022-10-04T23:24:21.568Z,2.05
2022-10-04T23:26:52.635Z,2.13
2022-10-04T23:29:19.697Z,2.17
2022-10-04T23:31:47.222Z,2.10
2022-10-04T23:34:18.834Z,2.20
2022-10-04T23:36:48.092Z,2.35
2022-10-04T23:39:28.490Z,2.15
2022-10-04T23:41:56.767Z,2.10
2022-10-04T23:44:27.299Z,1.75
2022-10-04T23:46:54.848Z,2.17
2022-10-04T23:49:22.605Z,2.20
2022-10-04T23:51:52.800Z,2.38
2022-10-04T23:54:20.320Z,2.20
2022-10-04T23:56:47.656Z,2.60
2022-10-04T23:59:20.086Z,2.45
